sensor_id;sensor_type;location;lat;lon;timestamp;P1;durP1;ratioP1;P2;durP2;ratioP2
59062;SDS011;44851;45.648;9.004;2023-02-28T00:00:33;5.20;;;4.00;;
59062;SDS011;44851;45.648;9.004;2023-02-28T00:02:59;7.03;;;4.03;;
59062;SDS011;44851;45.648;9.004;2023-02-28T00:05:26;5.93;;;4.10;;
59062;SDS011;44851;45.648;9.004;2023-02-28T00:07:52;6.23;;;4.90;;
59062;SDS011;44851;45.648;9.004;2023-02-28T00:10:19;4.80;;;4.17;;
59062;SDS011;44851;45.648;9.004;2023-02-28T00:12:48;5.53;;;4.20;;
59062;SDS011;44851;45.648;9.004;2023-02-28T00:15:18;4.10;;;3.67;;
59062;SDS011;44851;45.648;9.004;2023-02-28T00:17:44;4.50;;;3.67;;
59062;SDS011;44851;45.648;9.004;2023-02-28T00:20:10;6.37;;;4.70;;
59062;SDS011;44851;45.648;9.004;2023-02-28T00:22:40;5.17;;;4.23;;
59062;SDS011;44851;45.648;9.004;2023-02-28T00:25:08;6.63;;;5.00;;
59062;SDS011;44851;45.648;9.004;2023-02-28T00:27:35;4.80;;;4.30;;
59062;SDS011;44851;45.648;9.004;2023-02-28T00:30:02;4.67;;;4.03;;
59062;SDS011;44851;45.648;9.004;2023-02-28T00:32:28;5.70;;;4.07;;
59062;SDS011;44851;45.648;9.004;2023-02-28T00:34:54;4.70;;;4.00;;
59062;SDS011;44851;45.648;9.004;2023-02-28T00:37:20;7.20;;;4.20;;
59062;SDS011;44851;45.648;9.004;2023-02-28T00:39:46;5.63;;;4.40;;
59062;SDS011;44851;45.648;9.004;2023-02-28T00:42:11;5.00;;;3.90;;
59062;SDS011;44851;45.648;9.004;2023-02-28T00:44:36;6.83;;;4.80;;
59062;SDS011;44851;45.648;9.004;2023-02-28T00:47:02;6.40;;;4.57;;
59062;SDS011;44851;45.648;9.004;2023-02-28T00:49:27;5.83;;;4.50;;
59062;SDS011;44851;45.648;9.004;2023-02-28T00:51:53;5.93;;;4.23;;
59062;SDS011;44851;45.648;9.004;2023-02-28T00:54:20;5.47;;;4.23;;
59062;SDS011;44851;45.648;9.004;2023-02-28T00:56:46;6.97;;;5.07;;
59062;SDS011;44851;45.648;9.004;2023-02-28T00:59:12;6.10;;;4.83;;
59062;SDS011;44851;45.648;9.004;2023-02-28T01:01:39;6.83;;;4.90;;
59062;SDS011;44851;45.648;9.004;2023-02-28T01:04:05;7.10;;;4.90;;
59062;SDS011;44851;45.648;9.004;2023-02-28T01:06:30;6.53;;;4.90;;
59062;SDS011;44851;45.648;9.004;2023-02-28T01:08:56;5.10;;;4.33;;
59062;SDS011;44851;45.648;9.004;2023-02-28T01:11:22;7.30;;;4.70;;
59062;SDS011;44851;45.648;9.004;2023-02-28T01:13:48;6.10;;;4.90;;
59062;SDS011;44851;45.648;9.004;2023-02-28T01:16:13;6.97;;;5.10;;
59062;SDS011;44851;45.648;9.004;2023-02-28T01:18:39;6.93;;;5.60;;
59062;SDS011;44851;45.648;9.004;2023-02-28T01:21:15;8.73;;;6.10;;
59062;SDS011;44851;45.648;9.004;2023-02-28T01:23:41;6.70;;;5.13;;
59062;SDS011;44851;45.648;9.004;2023-02-28T01:26:09;6.10;;;5.13;;
59062;SDS011;44851;45.648;9.004;2023-02-28T01:28:38;6.27;;;5.07;;
59062;SDS011;44851;45.648;9.004;2023-02-28T01:31:04;5.87;;;4.80;;
59062;SDS011;44851;45.648;9.004;2023-02-28T01:33:30;7.57;;;4.93;;
59062;SDS011;44851;45.648;9.004;2023-02-28T01:35:59;9.70;;;5.93;;
59062;SDS011;44851;45.648;9.004;2023-02-28T01:38:26;6.90;;;5.40;;
59062;SDS011;44851;45.648;9.004;2023-02-28T01:40:52;8.00;;;6.17;;
59062;SDS011;44851;45.648;9.004;2023-02-28T01:45:49;7.20;;;5.77;;
59062;SDS011;44851;45.648;9.004;2023-02-28T01:48:15;8.00;;;5.67;;
59062;SDS011;44851;45.648;9.004;2023-02-28T01:50:42;8.80;;;6.27;;
59062;SDS011;44851;45.648;9.004;2023-02-28T01:53:24;7.47;;;5.77;;
59062;SDS011;44851;45.648;9.004;2023-02-28T01:55:57;8.20;;;6.43;;
59062;SDS011;44851;45.648;9.004;2023-02-28T01:58:23;9.33;;;6.30;;
59062;SDS011;44851;45.648;9.004;2023-02-28T02:00:49;7.50;;;6.43;;
59062;SDS011;44851;45.648;9.004;2023-02-28T02:03:15;9.27;;;6.47;;
59062;SDS011;44851;45.648;9.004;2023-02-28T02:05:46;12.37;;;8.03;;
59062;SDS011;44851;45.648;9.004;2023-02-28T02:08:26;9.47;;;7.00;;
59062;SDS011;44851;45.648;9.004;2023-02-28T02:10:54;11.43;;;7.70;;
59062;SDS011;44851;45.648;9.004;2023-02-28T02:18:40;8.87;;;7.60;;
59062;SDS011;44851;45.648;9.004;2023-02-28T02:40:20;11.97;;;8.80;;
59062;SDS011;44851;45.648;9.004;2023-02-28T02:45:22;10.80;;;8.50;;
59062;SDS011;44851;45.648;9.004;2023-02-28T02:47:53;13.03;;;9.43;;
59062;SDS011;44851;45.648;9.004;2023-02-28T02:50:29;12.33;;;8.97;;
59062;SDS011;44851;45.648;9.004;2023-02-28T02:52:59;13.27;;;10.03;;
59062;SDS011;44851;45.648;9.004;2023-02-28T02:55:27;10.83;;;8.30;;
59062;SDS011;44851;45.648;9.004;2023-02-28T02:58:00;13.90;;;8.80;;
59062;SDS011;44851;45.648;9.004;2023-02-28T03:00:33;13.70;;;9.50;;
59062;SDS011;44851;45.648;9.004;2023-02-28T03:03:02;11.40;;;9.10;;
59062;SDS011;44851;45.648;9.004;2023-02-28T03:05:33;12.93;;;9.90;;
59062;SDS011;44851;45.648;9.004;2023-02-28T03:08:04;10.87;;;8.57;;
59062;SDS011;44851;45.648;9.004;2023-02-28T03:10:41;12.80;;;9.20;;
59062;SDS011;44851;45.648;9.004;2023-02-28T03:13:18;11.07;;;9.00;;
59062;SDS011;44851;45.648;9.004;2023-02-28T03:16:15;14.67;;;9.63;;
59062;SDS011;44851;45.648;9.004;2023-02-28T03:21:33;13.93;;;10.30;;
59062;SDS011;44851;45.648;9.004;2023-02-28T03:24:33;17.40;;;10.30;;
59062;SDS011;44851;45.648;9.004;2023-02-28T03:27:06;11.37;;;8.80;;
59062;SDS011;44851;45.648;9.004;2023-02-28T03:29:41;12.37;;;9.87;;
59062;SDS011;44851;45.648;9.004;2023-02-28T03:32:24;11.93;;;8.77;;
59062;SDS011;44851;45.648;9.004;2023-02-28T03:34:58;14.07;;;10.03;;
59062;SDS011;44851;45.648;9.004;2023-02-28T03:37:31;13.30;;;9.87;;
59062;SDS011;44851;45.648;9.004;2023-02-28T03:40:08;15.30;;;10.53;;
59062;SDS011;44851;45.648;9.004;2023-02-28T03:42:38;12.53;;;9.07;;
59062;SDS011;44851;45.648;9.004;2023-02-28T03:45:16;13.77;;;9.80;;
59062;SDS011;44851;45.648;9.004;2023-02-28T03:53:25;13.83;;;9.33;;
59062;SDS011;44851;45.648;9.004;2023-02-28T03:56:14;13.03;;;9.00;;
59062;SDS011;44851;45.648;9.004;2023-02-28T03:58:46;14.20;;;9.33;;
59062;SDS011;44851;45.648;9.004;2023-02-28T04:03:52;12.00;;;8.20;;
59062;SDS011;44851;45.648;9.004;2023-02-28T04:06:18;11.43;;;8.67;;
59062;SDS011;44851;45.648;9.004;2023-02-28T04:08:46;12.17;;;8.60;;
59062;SDS011;44851;45.648;9.004;2023-02-28T04:13:48;11.67;;;8.70;;
59062;SDS011;44851;45.648;9.004;2023-02-28T04:16:14;13.37;;;8.10;;
59062;SDS011;44851;45.648;9.004;2023-02-28T04:18:41;9.60;;;7.60;;
59062;SDS011;44851;45.648;9.004;2023-02-28T04:21:10;11.10;;;6.63;;
59062;SDS011;44851;45.648;9.004;2023-02-28T04:23:36;12.43;;;6.87;;
59062;SDS011;44851;45.648;9.004;2023-02-28T04:26:02;11.17;;;7.53;;
59062;SDS011;44851;45.648;9.004;2023-02-28T04:28:28;12.07;;;7.17;;
59062;SDS011;44851;45.648;9.004;2023-02-28T04:31:01;11.60;;;7.00;;
59062;SDS011;44851;45.648;9.004;2023-02-28T04:33:29;9.83;;;6.27;;
59062;SDS011;44851;45.648;9.004;2023-02-28T04:36:06;11.20;;;7.23;;
59062;SDS011;44851;45.648;9.004;2023-02-28T04:38:37;10.30;;;6.33;;
59062;SDS011;44851;45.648;9.004;2023-02-28T04:41:04;10.17;;;6.90;;
59062;SDS011;44851;45.648;9.004;2023-02-28T04:43:30;11.97;;;7.53;;
59062;SDS011;44851;45.648;9.004;2023-02-28T04:45:56;10.83;;;6.30;;
59062;SDS011;44851;45.648;9.004;2023-02-28T04:48:29;10.33;;;6.93;;
59062;SDS011;44851;45.648;9.004;2023-02-28T04:51:00;12.63;;;7.63;;
59062;SDS011;44851;45.648;9.004;2023-02-28T04:53:26;13.17;;;7.10;;
59062;SDS011;44851;45.648;9.004;2023-02-28T04:55:53;14.50;;;8.00;;
59062;SDS011;44851;45.648;9.004;2023-02-28T04:58:18;10.93;;;7.53;;
59062;SDS011;44851;45.648;9.004;2023-02-28T05:00:44;13.73;;;7.20;;
59062;SDS011;44851;45.648;9.004;2023-02-28T05:03:09;10.87;;;7.47;;
59062;SDS011;44851;45.648;9.004;2023-02-28T05:05:35;12.13;;;7.87;;
59062;SDS011;44851;45.648;9.004;2023-02-28T05:08:00;11.60;;;7.03;;
59062;SDS011;44851;45.648;9.004;2023-02-28T05:10:26;11.57;;;6.97;;
59062;SDS011;44851;45.648;9.004;2023-02-28T05:12:51;11.27;;;7.53;;
59062;SDS011;44851;45.648;9.004;2023-02-28T05:15:17;12.53;;;7.40;;
59062;SDS011;44851;45.648;9.004;2023-02-28T05:17:43;10.53;;;7.27;;
59062;SDS011;44851;45.648;9.004;2023-02-28T05:20:09;12.70;;;6.60;;
59062;SDS011;44851;45.648;9.004;2023-02-28T05:22:41;15.23;;;7.53;;
59062;SDS011;44851;45.648;9.004;2023-02-28T05:25:08;10.20;;;7.30;;
59062;SDS011;44851;45.648;9.004;2023-02-28T05:27:37;10.50;;;6.90;;
59062;SDS011;44851;45.648;9.004;2023-02-28T05:30:03;13.33;;;7.93;;
59062;SDS011;44851;45.648;9.004;2023-02-28T05:32:29;12.07;;;6.90;;
59062;SDS011;44851;45.648;9.004;2023-02-28T05:34:54;10.47;;;7.43;;
59062;SDS011;44851;45.648;9.004;2023-02-28T05:37:20;10.57;;;7.73;;
59062;SDS011;44851;45.648;9.004;2023-02-28T05:39:46;9.30;;;6.87;;
59062;SDS011;44851;45.648;9.004;2023-02-28T05:42:11;11.47;;;7.47;;
59062;SDS011;44851;45.648;9.004;2023-02-28T05:44:36;11.73;;;7.67;;
59062;SDS011;44851;45.648;9.004;2023-02-28T05:47:02;10.23;;;6.70;;
59062;SDS011;44851;45.648;9.004;2023-02-28T05:49:27;14.40;;;7.83;;
59062;SDS011;44851;45.648;9.004;2023-02-28T05:51:53;12.03;;;6.70;;
59062;SDS011;44851;45.648;9.004;2023-02-28T05:54:19;15.40;;;7.63;;
59062;SDS011;44851;45.648;9.004;2023-02-28T05:56:44;9.97;;;6.67;;
59062;SDS011;44851;45.648;9.004;2023-02-28T05:59:11;11.47;;;7.30;;
59062;SDS011;44851;45.648;9.004;2023-02-28T06:04:08;14.30;;;8.27;;
59062;SDS011;44851;45.648;9.004;2023-02-28T06:06:35;12.23;;;8.63;;
59062;SDS011;44851;45.648;9.004;2023-02-28T06:09:02;12.40;;;8.13;;
59062;SDS011;44851;45.648;9.004;2023-02-28T06:11:30;10.70;;;7.57;;
59062;SDS011;44851;45.648;9.004;2023-02-28T06:13:57;12.13;;;7.53;;
59062;SDS011;44851;45.648;9.004;2023-02-28T06:16:24;15.53;;;8.53;;
59062;SDS011;44851;45.648;9.004;2023-02-28T06:18:51;12.17;;;8.03;;
59062;SDS011;44851;45.648;9.004;2023-02-28T06:21:17;11.00;;;7.63;;
59062;SDS011;44851;45.648;9.004;2023-02-28T06:23:43;11.03;;;7.53;;
59062;SDS011;44851;45.648;9.004;2023-02-28T06:26:09;13.70;;;8.37;;
59062;SDS011;44851;45.648;9.004;2023-02-28T06:28:35;9.73;;;7.87;;
59062;SDS011;44851;45.648;9.004;2023-02-28T06:31:05;15.53;;;8.67;;
59062;SDS011;44851;45.648;9.004;2023-02-28T06:33:35;14.17;;;9.17;;
59062;SDS011;44851;45.648;9.004;2023-02-28T06:36:01;14.00;;;9.20;;
59062;SDS011;44851;45.648;9.004;2023-02-28T06:38:26;18.40;;;9.73;;
59062;SDS011;44851;45.648;9.004;2023-02-28T06:40:53;12.83;;;7.60;;
59062;SDS011;44851;45.648;9.004;2023-02-28T06:43:19;13.13;;;8.47;;
59062;SDS011;44851;45.648;9.004;2023-02-28T06:45:44;12.17;;;8.20;;
59062;SDS011;44851;45.648;9.004;2023-02-28T06:48:10;14.27;;;8.47;;
59062;SDS011;44851;45.648;9.004;2023-02-28T06:50:35;16.10;;;8.70;;
59062;SDS011;44851;45.648;9.004;2023-02-28T06:53:02;11.27;;;8.10;;
59062;SDS011;44851;45.648;9.004;2023-02-28T06:55:27;12.70;;;8.63;;
59062;SDS011;44851;45.648;9.004;2023-02-28T06:57:53;11.80;;;8.20;;
59062;SDS011;44851;45.648;9.004;2023-02-28T07:00:20;13.30;;;7.93;;
59062;SDS011;44851;45.648;9.004;2023-02-28T07:02:45;12.10;;;8.30;;
59062;SDS011;44851;45.648;9.004;2023-02-28T07:05:12;11.67;;;8.23;;
59062;SDS011;44851;45.648;9.004;2023-02-28T07:07:38;11.37;;;8.13;;
59062;SDS011;44851;45.648;9.004;2023-02-28T07:10:05;15.70;;;8.83;;
59062;SDS011;44851;45.648;9.004;2023-02-28T07:12:32;13.17;;;8.37;;
59062;SDS011;44851;45.648;9.004;2023-02-28T07:14:57;13.10;;;8.00;;
59062;SDS011;44851;45.648;9.004;2023-02-28T07:17:23;11.77;;;7.77;;
59062;SDS011;44851;45.648;9.004;2023-02-28T07:19:48;10.63;;;7.70;;
59062;SDS011;44851;45.648;9.004;2023-02-28T07:22:13;14.10;;;8.83;;
59062;SDS011;44851;45.648;9.004;2023-02-28T07:24:39;15.53;;;8.93;;
59062;SDS011;44851;45.648;9.004;2023-02-28T07:27:04;15.20;;;9.27;;
59062;SDS011;44851;45.648;9.004;2023-02-28T07:29:30;13.53;;;9.30;;
59062;SDS011;44851;45.648;9.004;2023-02-28T07:31:55;14.20;;;9.37;;
59062;SDS011;44851;45.648;9.004;2023-02-28T07:34:21;17.90;;;10.80;;
59062;SDS011;44851;45.648;9.004;2023-02-28T07:36:47;13.57;;;8.97;;
59062;SDS011;44851;45.648;9.004;2023-02-28T07:39:12;12.93;;;8.93;;
59062;SDS011;44851;45.648;9.004;2023-02-28T07:41:40;13.83;;;8.47;;
59062;SDS011;44851;45.648;9.004;2023-02-28T07:44:09;20.67;;;9.80;;
59062;SDS011;44851;45.648;9.004;2023-02-28T07:46:35;13.93;;;9.20;;
59062;SDS011;44851;45.648;9.004;2023-02-28T07:49:01;14.37;;;8.87;;
59062;SDS011;44851;45.648;9.004;2023-02-28T07:51:28;16.33;;;9.23;;
59062;SDS011;44851;45.648;9.004;2023-02-28T07:53:55;13.83;;;8.70;;
59062;SDS011;44851;45.648;9.004;2023-02-28T07:56:21;22.87;;;8.70;;
59062;SDS011;44851;45.648;9.004;2023-02-28T07:58:47;16.27;;;9.87;;
59062;SDS011;44851;45.648;9.004;2023-02-28T08:01:12;13.67;;;9.60;;
59062;SDS011;44851;45.648;9.004;2023-02-28T08:03:39;19.53;;;9.93;;
59062;SDS011;44851;45.648;9.004;2023-02-28T08:06:06;14.77;;;9.40;;
59062;SDS011;44851;45.648;9.004;2023-02-28T08:08:32;16.03;;;10.47;;
59062;SDS011;44851;45.648;9.004;2023-02-28T08:10:59;13.53;;;9.80;;
59062;SDS011;44851;45.648;9.004;2023-02-28T08:13:26;17.27;;;9.83;;
59062;SDS011;44851;45.648;9.004;2023-02-28T08:15:53;16.20;;;10.17;;
59062;SDS011;44851;45.648;9.004;2023-02-28T08:18:19;13.97;;;9.93;;
59062;SDS011;44851;45.648;9.004;2023-02-28T08:20:45;16.40;;;10.47;;
59062;SDS011;44851;45.648;9.004;2023-02-28T08:23:10;15.07;;;9.73;;
59062;SDS011;44851;45.648;9.004;2023-02-28T08:25:36;17.13;;;9.80;;
59062;SDS011;44851;45.648;9.004;2023-02-28T08:28:01;17.13;;;10.10;;
59062;SDS011;44851;45.648;9.004;2023-02-28T08:30:27;17.97;;;11.73;;
59062;SDS011;44851;45.648;9.004;2023-02-28T08:32:52;15.60;;;10.20;;
59062;SDS011;44851;45.648;9.004;2023-02-28T08:35:19;16.03;;;10.30;;
59062;SDS011;44851;45.648;9.004;2023-02-28T08:37:44;18.47;;;10.67;;
59062;SDS011;44851;45.648;9.004;2023-02-28T08:40:13;15.97;;;10.70;;
59062;SDS011;44851;45.648;9.004;2023-02-28T08:42:43;14.60;;;10.50;;
59062;SDS011;44851;45.648;9.004;2023-02-28T08:45:12;19.87;;;10.00;;
59062;SDS011;44851;45.648;9.004;2023-02-28T08:47:38;17.77;;;11.13;;
59062;SDS011;44851;45.648;9.004;2023-02-28T08:50:04;14.33;;;10.43;;
59062;SDS011;44851;45.648;9.004;2023-02-28T08:52:30;16.90;;;10.43;;
59062;SDS011;44851;45.648;9.004;2023-02-28T08:54:55;17.63;;;10.70;;
59062;SDS011;44851;45.648;9.004;2023-02-28T08:57:20;14.17;;;10.83;;
59062;SDS011;44851;45.648;9.004;2023-02-28T08:59:46;16.13;;;9.83;;
59062;SDS011;44851;45.648;9.004;2023-02-28T09:02:15;14.00;;;9.43;;
59062;SDS011;44851;45.648;9.004;2023-02-28T09:04:40;15.57;;;10.53;;
59062;SDS011;44851;45.648;9.004;2023-02-28T09:07:06;17.63;;;11.30;;
59062;SDS011;44851;45.648;9.004;2023-02-28T09:09:32;16.93;;;11.03;;
59062;SDS011;44851;45.648;9.004;2023-02-28T09:11:58;17.77;;;11.50;;
59062;SDS011;44851;45.648;9.004;2023-02-28T09:14:23;16.97;;;11.63;;
59062;SDS011;44851;45.648;9.004;2023-02-28T09:16:49;15.10;;;10.93;;
59062;SDS011;44851;45.648;9.004;2023-02-28T09:19:14;18.33;;;12.53;;
59062;SDS011;44851;45.648;9.004;2023-02-28T09:21:40;17.37;;;11.40;;
59062;SDS011;44851;45.648;9.004;2023-02-28T09:24:06;20.23;;;11.97;;
59062;SDS011;44851;45.648;9.004;2023-02-28T09:26:32;18.10;;;11.70;;
59062;SDS011;44851;45.648;9.004;2023-02-28T09:28:59;17.97;;;12.00;;
59062;SDS011;44851;45.648;9.004;2023-02-28T09:31:26;16.07;;;11.17;;
59062;SDS011;44851;45.648;9.004;2023-02-28T09:33:54;15.60;;;11.37;;
59062;SDS011;44851;45.648;9.004;2023-02-28T09:36:21;15.97;;;11.03;;
59062;SDS011;44851;45.648;9.004;2023-02-28T09:38:48;14.97;;;10.90;;
59062;SDS011;44851;45.648;9.004;2023-02-28T09:41:20;16.77;;;11.23;;
59062;SDS011;44851;45.648;9.004;2023-02-28T09:43:49;17.53;;;11.83;;
59062;SDS011;44851;45.648;9.004;2023-02-28T09:46:26;16.50;;;11.67;;
59062;SDS011;44851;45.648;9.004;2023-02-28T09:48:52;15.87;;;10.00;;
59062;SDS011;44851;45.648;9.004;2023-02-28T09:54:13;15.43;;;11.37;;
59062;SDS011;44851;45.648;9.004;2023-02-28T09:56:44;17.33;;;11.10;;
59062;SDS011;44851;45.648;9.004;2023-02-28T10:04:56;16.33;;;11.13;;
59062;SDS011;44851;45.648;9.004;2023-02-28T10:09:56;15.27;;;10.93;;
59062;SDS011;44851;45.648;9.004;2023-02-28T10:12:26;16.60;;;11.73;;
59062;SDS011;44851;45.648;9.004;2023-02-28T10:14:54;21.67;;;12.33;;
59062;SDS011;44851;45.648;9.004;2023-02-28T10:17:25;19.47;;;13.07;;
59062;SDS011;44851;45.648;9.004;2023-02-28T10:22:33;17.37;;;11.57;;
59062;SDS011;44851;45.648;9.004;2023-02-28T10:25:16;15.53;;;10.73;;
59062;SDS011;44851;45.648;9.004;2023-02-28T10:27:44;16.23;;;11.43;;
59062;SDS011;44851;45.648;9.004;2023-02-28T10:30:09;15.50;;;10.97;;
59062;SDS011;44851;45.648;9.004;2023-02-28T10:32:37;18.63;;;11.33;;
59062;SDS011;44851;45.648;9.004;2023-02-28T10:37:43;17.57;;;11.10;;
59062;SDS011;44851;45.648;9.004;2023-02-28T10:43:11;15.17;;;11.77;;
59062;SDS011;44851;45.648;9.004;2023-02-28T10:45:39;17.47;;;11.67;;
59062;SDS011;44851;45.648;9.004;2023-02-28T10:50:43;19.57;;;11.07;;
59062;SDS011;44851;45.648;9.004;2023-02-28T10:55:56;16.67;;;11.80;;
59062;SDS011;44851;45.648;9.004;2023-02-28T10:58:27;16.40;;;11.07;;
59062;SDS011;44851;45.648;9.004;2023-02-28T11:00:54;18.60;;;11.83;;
59062;SDS011;44851;45.648;9.004;2023-02-28T11:06:07;15.43;;;11.03;;
59062;SDS011;44851;45.648;9.004;2023-02-28T11:08:48;17.43;;;11.60;;
59062;SDS011;44851;45.648;9.004;2023-02-28T11:11:17;16.67;;;12.23;;
59062;SDS011;44851;45.648;9.004;2023-02-28T11:13:44;15.17;;;10.43;;
59062;SDS011;44851;45.648;9.004;2023-02-28T11:16:12;17.67;;;11.47;;
59062;SDS011;44851;45.648;9.004;2023-02-28T11:18:54;16.80;;;10.63;;
59062;SDS011;44851;45.648;9.004;2023-02-28T11:21:27;13.80;;;10.47;;
59062;SDS011;44851;45.648;9.004;2023-02-28T11:23:58;16.33;;;11.30;;
59062;SDS011;44851;45.648;9.004;2023-02-28T11:26:46;18.37;;;12.03;;
59062;SDS011;44851;45.648;9.004;2023-02-28T11:34:42;15.30;;;11.20;;
59062;SDS011;44851;45.648;9.004;2023-02-28T11:37:12;15.70;;;10.90;;
59062;SDS011;44851;45.648;9.004;2023-02-28T11:39:40;15.47;;;10.10;;
59062;SDS011;44851;45.648;9.004;2023-02-28T11:45:16;15.87;;;10.47;;
59062;SDS011;44851;45.648;9.004;2023-02-28T11:55:45;15.27;;;10.87;;
59062;SDS011;44851;45.648;9.004;2023-02-28T11:58:38;16.07;;;11.00;;
59062;SDS011;44851;45.648;9.004;2023-02-28T12:07:17;14.83;;;10.53;;
59062;SDS011;44851;45.648;9.004;2023-02-28T12:26:57;17.03;;;11.80;;
59062;SDS011;44851;45.648;9.004;2023-02-28T12:29:21;13.70;;;10.23;;
59062;SDS011;44851;45.648;9.004;2023-02-28T12:32:05;14.80;;;10.27;;
59062;SDS011;44851;45.648;9.004;2023-02-28T12:34:39;15.77;;;12.80;;
59062;SDS011;44851;45.648;9.004;2023-02-28T12:37:23;15.17;;;11.40;;
59062;SDS011;44851;45.648;9.004;2023-02-28T12:40:02;12.47;;;9.60;;
59062;SDS011;44851;45.648;9.004;2023-02-28T12:42:49;13.97;;;10.03;;
59062;SDS011;44851;45.648;9.004;2023-02-28T12:45:31;14.80;;;10.57;;
59062;SDS011;44851;45.648;9.004;2023-02-28T12:48:06;13.63;;;10.43;;
59062;SDS011;44851;45.648;9.004;2023-02-28T12:50:35;17.03;;;10.87;;
59062;SDS011;44851;45.648;9.004;2023-02-28T12:53:03;15.30;;;10.90;;
59062;SDS011;44851;45.648;9.004;2023-02-28T13:09:51;13.40;;;10.27;;
59062;SDS011;44851;45.648;9.004;2023-02-28T13:12:18;13.30;;;9.70;;
59062;SDS011;44851;45.648;9.004;2023-02-28T13:14:45;12.90;;;9.97;;
59062;SDS011;44851;45.648;9.004;2023-02-28T13:17:12;15.23;;;10.60;;
59062;SDS011;44851;45.648;9.004;2023-02-28T13:19:56;12.00;;;9.43;;
59062;SDS011;44851;45.648;9.004;2023-02-28T13:25:49;13.03;;;8.77;;
59062;SDS011;44851;45.648;9.004;2023-02-28T13:27:57;13.23;;;9.97;;
59062;SDS011;44851;45.648;9.004;2023-02-28T13:38:45;13.20;;;9.53;;
59062;SDS011;44851;45.648;9.004;2023-02-28T14:05:38;12.83;;;10.03;;
59062;SDS011;44851;45.648;9.004;2023-02-28T14:08:05;18.77;;;12.87;;
59062;SDS011;44851;45.648;9.004;2023-02-28T14:10:42;15.33;;;10.67;;
59062;SDS011;44851;45.648;9.004;2023-02-28T14:16:09;16.57;;;11.57;;
59062;SDS011;44851;45.648;9.004;2023-02-28T14:18:40;16.37;;;10.93;;
59062;SDS011;44851;45.648;9.004;2023-02-28T14:21:13;14.27;;;10.43;;
59062;SDS011;44851;45.648;9.004;2023-02-28T14:24:03;14.80;;;10.80;;
59062;SDS011;44851;45.648;9.004;2023-02-28T14:36:13;16.37;;;10.37;;
59062;SDS011;44851;45.648;9.004;2023-02-28T14:38:23;13.90;;;10.00;;
59062;SDS011;44851;45.648;9.004;2023-02-28T14:40:55;15.67;;;10.23;;
59062;SDS011;44851;45.648;9.004;2023-02-28T14:43:27;14.30;;;10.77;;
59062;SDS011;44851;45.648;9.004;2023-02-28T14:45:54;15.77;;;10.67;;
59062;SDS011;44851;45.648;9.004;2023-02-28T14:48:22;15.97;;;11.00;;
59062;SDS011;44851;45.648;9.004;2023-02-28T14:50:54;14.97;;;10.40;;
59062;SDS011;44851;45.648;9.004;2023-02-28T14:53:22;17.37;;;10.43;;
59062;SDS011;44851;45.648;9.004;2023-02-28T14:55:51;13.70;;;10.50;;
59062;SDS011;44851;45.648;9.004;2023-02-28T14:58:31;13.43;;;10.80;;
59062;SDS011;44851;45.648;9.004;2023-02-28T15:00:59;15.63;;;10.20;;
59062;SDS011;44851;45.648;9.004;2023-02-28T15:05:57;15.30;;;11.03;;
59062;SDS011;44851;45.648;9.004;2023-02-28T15:08:25;13.67;;;10.03;;
59062;SDS011;44851;45.648;9.004;2023-02-28T15:11:01;12.93;;;10.27;;
59062;SDS011;44851;45.648;9.004;2023-02-28T15:13:38;16.43;;;11.27;;
59062;SDS011;44851;45.648;9.004;2023-02-28T15:16:04;14.80;;;11.40;;
59062;SDS011;44851;45.648;9.004;2023-02-28T15:21:26;18.73;;;11.60;;
59062;SDS011;44851;45.648;9.004;2023-02-28T15:23:59;16.60;;;10.93;;
59062;SDS011;44851;45.648;9.004;2023-02-28T15:26:30;17.40;;;11.67;;
59062;SDS011;44851;45.648;9.004;2023-02-28T15:28:59;16.30;;;12.10;;
59062;SDS011;44851;45.648;9.004;2023-02-28T15:31:28;17.07;;;10.83;;
59062;SDS011;44851;45.648;9.004;2023-02-28T15:33:58;18.97;;;11.23;;
59062;SDS011;44851;45.648;9.004;2023-02-28T15:36:30;16.10;;;10.93;;
59062;SDS011;44851;45.648;9.004;2023-02-28T15:38:59;18.27;;;11.50;;
59062;SDS011;44851;45.648;9.004;2023-02-28T15:46:55;14.53;;;10.17;;
59062;SDS011;44851;45.648;9.004;2023-02-28T15:49:28;20.13;;;11.23;;
59062;SDS011;44851;45.648;9.004;2023-02-28T15:51:59;15.63;;;11.47;;
59062;SDS011;44851;45.648;9.004;2023-02-28T15:54:29;15.07;;;10.33;;
59062;SDS011;44851;45.648;9.004;2023-02-28T15:57:01;16.73;;;10.27;;
59062;SDS011;44851;45.648;9.004;2023-02-28T15:59:33;18.33;;;11.67;;
59062;SDS011;44851;45.648;9.004;2023-02-28T16:02:13;13.73;;;10.13;;
59062;SDS011;44851;45.648;9.004;2023-02-28T16:07:35;16.50;;;10.30;;
59062;SDS011;44851;45.648;9.004;2023-02-28T16:10:02;19.67;;;11.40;;
59062;SDS011;44851;45.648;9.004;2023-02-28T16:12:29;17.53;;;11.63;;
59062;SDS011;44851;45.648;9.004;2023-02-28T16:14:58;18.97;;;11.67;;
59062;SDS011;44851;45.648;9.004;2023-02-28T16:17:33;17.50;;;11.47;;
59062;SDS011;44851;45.648;9.004;2023-02-28T16:20:00;16.43;;;11.03;;
59062;SDS011;44851;45.648;9.004;2023-02-28T16:22:26;17.47;;;11.77;;
59062;SDS011;44851;45.648;9.004;2023-02-28T16:24:51;16.47;;;11.27;;
59062;SDS011;44851;45.648;9.004;2023-02-28T16:27:18;15.80;;;11.80;;
59062;SDS011;44851;45.648;9.004;2023-02-28T16:29:47;16.90;;;11.27;;
59062;SDS011;44851;45.648;9.004;2023-02-28T16:32:14;16.50;;;11.77;;
59062;SDS011;44851;45.648;9.004;2023-02-28T16:34:41;18.87;;;12.23;;
59062;SDS011;44851;45.648;9.004;2023-02-28T16:37:13;14.77;;;11.07;;
59062;SDS011;44851;45.648;9.004;2023-02-28T16:39:41;16.93;;;11.80;;
59062;SDS011;44851;45.648;9.004;2023-02-28T16:42:10;17.23;;;11.03;;
59062;SDS011;44851;45.648;9.004;2023-02-28T16:44:41;16.00;;;10.90;;
59062;SDS011;44851;45.648;9.004;2023-02-28T16:47:08;17.20;;;11.33;;
59062;SDS011;44851;45.648;9.004;2023-02-28T16:49:36;18.93;;;12.50;;
59062;SDS011;44851;45.648;9.004;2023-02-28T16:52:01;18.87;;;11.43;;
59062;SDS011;44851;45.648;9.004;2023-02-28T16:54:27;16.83;;;11.97;;
59062;SDS011;44851;45.648;9.004;2023-02-28T16:56:52;17.77;;;11.57;;
59062;SDS011;44851;45.648;9.004;2023-02-28T16:59:20;18.20;;;12.17;;
59062;SDS011;44851;45.648;9.004;2023-02-28T17:01:48;15.30;;;11.47;;
59062;SDS011;44851;45.648;9.004;2023-02-28T17:04:14;17.13;;;11.90;;
59062;SDS011;44851;45.648;9.004;2023-02-28T17:06:40;19.43;;;12.63;;
59062;SDS011;44851;45.648;9.004;2023-02-28T17:09:08;17.83;;;12.17;;
59062;SDS011;44851;45.648;9.004;2023-02-28T17:11:40;20.90;;;12.27;;
59062;SDS011;44851;45.648;9.004;2023-02-28T17:14:05;17.50;;;12.53;;
59062;SDS011;44851;45.648;9.004;2023-02-28T17:16:32;18.63;;;12.07;;
59062;SDS011;44851;45.648;9.004;2023-02-28T17:19:00;17.33;;;11.97;;
59062;SDS011;44851;45.648;9.004;2023-02-28T17:21:28;14.67;;;10.60;;
59062;SDS011;44851;45.648;9.004;2023-02-28T17:23:54;19.63;;;12.73;;
59062;SDS011;44851;45.648;9.004;2023-02-28T17:26:20;18.60;;;12.20;;
59062;SDS011;44851;45.648;9.004;2023-02-28T17:28:47;23.77;;;11.97;;
59062;SDS011;44851;45.648;9.004;2023-02-28T17:31:13;17.20;;;12.40;;
59062;SDS011;44851;45.648;9.004;2023-02-28T17:33:38;15.63;;;11.27;;
59062;SDS011;44851;45.648;9.004;2023-02-28T17:36:04;19.10;;;11.60;;
59062;SDS011;44851;45.648;9.004;2023-02-28T17:38:30;18.03;;;13.13;;
59062;SDS011;44851;45.648;9.004;2023-02-28T17:40:56;17.57;;;12.50;;
59062;SDS011;44851;45.648;9.004;2023-02-28T17:43:25;18.80;;;13.17;;
59062;SDS011;44851;45.648;9.004;2023-02-28T17:45:51;18.70;;;13.03;;
59062;SDS011;44851;45.648;9.004;2023-02-28T17:48:17;21.77;;;13.83;;